sensor_id;sensor_type;location;lat;lon;timestamp;P1;durP1;ratioP1;P2;durP2;ratioP2
23242;SDS011;11790;49.578;11.214;2023-01-19T00:04:40;44.75;;;22.00;;
23242;SDS011;11790;49.578;11.214;2023-01-19T00:09:40;40.35;;;19.58;;
23242;SDS011;11790;49.578;11.214;2023-01-19T00:14:40;41.72;;;20.08;;
23242;SDS011;11790;49.578;11.214;2023-01-19T00:19:40;34.25;;;17.02;;
23242;SDS011;11790;49.578;11.214;2023-01-19T00:24:41;35.65;;;17.20;;
23242;SDS011;11790;49.578;11.214;2023-01-19T00:29:41;38.92;;;18.00;;
23242;SDS011;11790;49.578;11.214;2023-01-19T00:34:41;37.30;;;17.80;;
23242;SDS011;11790;49.578;11.214;2023-01-19T00:39:48;39.72;;;16.48;;
23242;SDS011;11790;49.578;11.214;2023-01-19T00:44:48;38.17;;;17.80;;
23242;SDS011;11790;49.578;11.214;2023-01-19T00:49:48;41.42;;;18.10;;
23242;SDS011;11790;49.578;11.214;2023-01-19T00:54:48;42.13;;;19.38;;
23242;SDS011;11790;49.578;11.214;2023-01-19T00:59:49;43.08;;;19.85;;
23242;SDS011;11790;49.578;11.214;2023-01-19T01:04:49;35.45;;;18.80;;
23242;SDS011;11790;49.578;11.214;2023-01-19T01:09:53;41.85;;;18.95;;
23242;SDS011;11790;49.578;11.214;2023-01-19T01:14:55;43.25;;;19.98;;
23242;SDS011;11790;49.578;11.214;2023-01-19T01:19:55;46.15;;;19.63;;
23242;SDS011;11790;49.578;11.214;2023-01-19T01:24:55;46.35;;;21.88;;
23242;SDS011;11790;49.578;11.214;2023-01-19T01:29:56;42.60;;;21.20;;
23242;SDS011;11790;49.578;11.214;2023-01-19T01:34:56;49.00;;;21.05;;
23242;SDS011;11790;49.578;11.214;2023-01-19T01:39:56;52.33;;;21.67;;
23242;SDS011;11790;49.578;11.214;2023-01-19T01:44:57;38.88;;;18.67;;
23242;SDS011;11790;49.578;11.214;2023-01-19T01:50:08;42.67;;;20.50;;
23242;SDS011;11790;49.578;11.214;2023-01-19T01:55:09;45.40;;;21.67;;
23242;SDS011;11790;49.578;11.214;2023-01-19T02:00:10;46.17;;;21.88;;
23242;SDS011;11790;49.578;11.214;2023-01-19T02:05:12;48.30;;;21.20;;
23242;SDS011;11790;49.578;11.214;2023-01-19T02:10:14;35.55;;;18.15;;
23242;SDS011;11790;49.578;11.214;2023-01-19T02:15:32;42.35;;;18.55;;
23242;SDS011;11790;49.578;11.214;2023-01-19T02:20:32;44.22;;;19.20;;
23242;SDS011;11790;49.578;11.214;2023-01-19T02:25:34;43.03;;;19.05;;
23242;SDS011;11790;49.578;11.214;2023-01-19T02:30:34;41.70;;;19.10;;
23242;SDS011;11790;49.578;11.214;2023-01-19T02:35:37;37.05;;;17.77;;
23242;SDS011;11790;49.578;11.214;2023-01-19T02:40:39;37.75;;;18.52;;
23242;SDS011;11790;49.578;11.214;2023-01-19T02:45:41;45.38;;;20.25;;
23242;SDS011;11790;49.578;11.214;2023-01-19T02:50:42;43.35;;;19.90;;
23242;SDS011;11790;49.578;11.214;2023-01-19T02:55:46;39.72;;;19.83;;
23242;SDS011;11790;49.578;11.214;2023-01-19T03:11:23;42.03;;;20.20;;
23242;SDS011;11790;49.578;11.214;2023-01-19T03:16:33;46.00;;;20.65;;
23242;SDS011;11790;49.578;11.214;2023-01-19T03:21:35;41.83;;;18.38;;
23242;SDS011;11790;49.578;11.214;2023-01-19T03:26:37;38.13;;;18.60;;
23242;SDS011;11790;49.578;11.214;2023-01-19T03:31:39;36.63;;;17.92;;
23242;SDS011;11790;49.578;11.214;2023-01-19T03:36:45;38.08;;;17.73;;
23242;SDS011;11790;49.578;11.214;2023-01-19T03:41:46;36.70;;;18.17;;
23242;SDS011;11790;49.578;11.214;2023-01-19T03:46:47;43.95;;;19.00;;
23242;SDS011;11790;49.578;11.214;2023-01-19T03:51:49;37.63;;;17.50;;
23242;SDS011;11790;49.578;11.214;2023-01-19T03:56:49;35.50;;;15.43;;
23242;SDS011;11790;49.578;11.214;2023-01-19T04:01:51;40.97;;;18.20;;
23242;SDS011;11790;49.578;11.214;2023-01-19T04:06:51;46.25;;;19.50;;
23242;SDS011;11790;49.578;11.214;2023-01-19T04:11:51;42.40;;;21.13;;
23242;SDS011;11790;49.578;11.214;2023-01-19T04:16:51;40.50;;;20.37;;
23242;SDS011;11790;49.578;11.214;2023-01-19T04:21:52;37.40;;;18.38;;
23242;SDS011;11790;49.578;11.214;2023-01-19T04:26:52;36.92;;;17.65;;
23242;SDS011;11790;49.578;11.214;2023-01-19T04:31:52;40.65;;;17.42;;
23242;SDS011;11790;49.578;11.214;2023-01-19T04:36:52;40.20;;;18.77;;
23242;SDS011;11790;49.578;11.214;2023-01-19T04:41:54;37.72;;;18.33;;
23242;SDS011;11790;49.578;11.214;2023-01-19T04:46:56;39.85;;;18.92;;
23242;SDS011;11790;49.578;11.214;2023-01-19T04:51:56;40.33;;;18.77;;
23242;SDS011;11790;49.578;11.214;2023-01-19T04:56:56;41.55;;;18.40;;
23242;SDS011;11790;49.578;11.214;2023-01-19T05:01:57;40.80;;;18.45;;
23242;SDS011;11790;49.578;11.214;2023-01-19T05:06:57;36.03;;;17.35;;
23242;SDS011;11790;49.578;11.214;2023-01-19T05:11:57;38.37;;;18.33;;
23242;SDS011;11790;49.578;11.214;2023-01-19T05:16:57;36.50;;;17.92;;
23242;SDS011;11790;49.578;11.214;2023-01-19T05:21:58;37.63;;;17.50;;
23242;SDS011;11790;49.578;11.214;2023-01-19T05:26:58;36.35;;;17.85;;
23242;SDS011;11790;49.578;11.214;2023-01-19T05:31:59;35.95;;;17.83;;
23242;SDS011;11790;49.578;11.214;2023-01-19T05:36:59;39.50;;;18.88;;
23242;SDS011;11790;49.578;11.214;2023-01-19T05:41:59;39.25;;;18.73;;
23242;SDS011;11790;49.578;11.214;2023-01-19T05:46:59;41.92;;;20.33;;
23242;SDS011;11790;49.578;11.214;2023-01-19T05:51:59;43.05;;;20.77;;
23242;SDS011;11790;49.578;11.214;2023-01-19T05:56:59;42.67;;;19.65;;
23242;SDS011;11790;49.578;11.214;2023-01-19T06:02:00;48.05;;;21.83;;
23242;SDS011;11790;49.578;11.214;2023-01-19T06:07:00;41.00;;;19.83;;
23242;SDS011;11790;49.578;11.214;2023-01-19T06:12:01;51.95;;;22.10;;
23242;SDS011;11790;49.578;11.214;2023-01-19T06:17:01;51.35;;;23.02;;
23242;SDS011;11790;49.578;11.214;2023-01-19T06:22:01;46.75;;;23.27;;
23242;SDS011;11790;49.578;11.214;2023-01-19T06:27:01;52.85;;;23.67;;
23242;SDS011;11790;49.578;11.214;2023-01-19T06:32:01;42.80;;;21.50;;
23242;SDS011;11790;49.578;11.214;2023-01-19T06:37:02;52.15;;;24.08;;
23242;SDS011;11790;49.578;11.214;2023-01-19T06:42:02;45.65;;;22.50;;
23242;SDS011;11790;49.578;11.214;2023-01-19T06:47:03;46.13;;;23.60;;
23242;SDS011;11790;49.578;11.214;2023-01-19T06:52:03;47.40;;;23.25;;
23242;SDS011;11790;49.578;11.214;2023-01-19T06:57:03;44.47;;;22.30;;
23242;SDS011;11790;49.578;11.214;2023-01-19T07:02:03;42.85;;;21.85;;
23242;SDS011;11790;49.578;11.214;2023-01-19T07:07:03;42.78;;;21.35;;
23242;SDS011;11790;49.578;11.214;2023-01-19T07:12:04;44.85;;;22.60;;
23242;SDS011;11790;49.578;11.214;2023-01-19T07:17:05;45.45;;;23.35;;
23242;SDS011;11790;49.578;11.214;2023-01-19T07:22:05;44.80;;;23.48;;
23242;SDS011;11790;49.578;11.214;2023-01-19T07:27:05;45.05;;;23.10;;
23242;SDS011;11790;49.578;11.214;2023-01-19T07:32:05;46.13;;;23.23;;
23242;SDS011;11790;49.578;11.214;2023-01-19T07:37:06;52.97;;;25.67;;
23242;SDS011;11790;49.578;11.214;2023-01-19T07:42:06;48.00;;;25.35;;
23242;SDS011;11790;49.578;11.214;2023-01-19T07:47:06;50.88;;;26.63;;
23242;SDS011;11790;49.578;11.214;2023-01-19T07:52:10;53.33;;;27.13;;
23242;SDS011;11790;49.578;11.214;2023-01-19T07:57:10;51.17;;;26.83;;
23242;SDS011;11790;49.578;11.214;2023-01-19T08:02:10;52.42;;;26.58;;
23242;SDS011;11790;49.578;11.214;2023-01-19T08:07:10;63.95;;;33.33;;
23242;SDS011;11790;49.578;11.214;2023-01-19T08:12:11;50.33;;;26.55;;
23242;SDS011;11790;49.578;11.214;2023-01-19T08:17:11;48.95;;;26.98;;
23242;SDS011;11790;49.578;11.214;2023-01-19T08:22:12;50.80;;;26.75;;
23242;SDS011;11790;49.578;11.214;2023-01-19T08:27:12;57.03;;;26.15;;
23242;SDS011;11790;49.578;11.214;2023-01-19T08:32:12;42.35;;;23.27;;
23242;SDS011;11790;49.578;11.214;2023-01-19T08:37:12;48.13;;;24.85;;
23242;SDS011;11790;49.578;11.214;2023-01-19T08:42:12;56.70;;;23.77;;
23242;SDS011;11790;49.578;11.214;2023-01-19T08:47:12;43.03;;;23.83;;
23242;SDS011;11790;49.578;11.214;2023-01-19T08:52:12;47.15;;;23.55;;
23242;SDS011;11790;49.578;11.214;2023-01-19T08:57:13;47.00;;;23.92;;
23242;SDS011;11790;49.578;11.214;2023-01-19T09:02:15;42.45;;;23.02;;
23242;SDS011;11790;49.578;11.214;2023-01-19T09:07:15;37.80;;;20.58;;
23242;SDS011;11790;49.578;11.214;2023-01-19T09:12:17;40.03;;;22.10;;
23242;SDS011;11790;49.578;11.214;2023-01-19T09:17:17;39.85;;;22.75;;
23242;SDS011;11790;49.578;11.214;2023-01-19T09:22:17;36.17;;;20.97;;
23242;SDS011;11790;49.578;11.214;2023-01-19T09:27:18;43.95;;;21.90;;
23242;SDS011;11790;49.578;11.214;2023-01-19T09:32:19;41.20;;;22.58;;
23242;SDS011;11790;49.578;11.214;2023-01-19T09:37:19;39.60;;;22.08;;
23242;SDS011;11790;49.578;11.214;2023-01-19T09:42:30;36.72;;;21.30;;
23242;SDS011;11790;49.578;11.214;2023-01-19T09:47:32;42.00;;;21.80;;
23242;SDS011;11790;49.578;11.214;2023-01-19T09:52:34;34.67;;;19.33;;
23242;SDS011;11790;49.578;11.214;2023-01-19T09:57:35;36.15;;;20.02;;
23242;SDS011;11790;49.578;11.214;2023-01-19T10:02:39;34.38;;;19.10;;
23242;SDS011;11790;49.578;11.214;2023-01-19T10:23:22;33.50;;;17.83;;
23242;SDS011;11790;49.578;11.214;2023-01-19T10:28:24;28.35;;;17.45;;
23242;SDS011;11790;49.578;11.214;2023-01-19T10:33:25;34.80;;;17.48;;
23242;SDS011;11790;49.578;11.214;2023-01-19T10:38:26;29.70;;;17.20;;
23242;SDS011;11790;49.578;11.214;2023-01-19T10:43:33;28.70;;;16.85;;
23242;SDS011;11790;49.578;11.214;2023-01-19T10:48:37;33.00;;;18.07;;
23242;SDS011;11790;49.578;11.214;2023-01-19T10:53:38;31.58;;;18.27;;
23242;SDS011;11790;49.578;11.214;2023-01-19T10:58:39;31.63;;;16.80;;
23242;SDS011;11790;49.578;11.214;2023-01-19T11:03:39;32.38;;;17.80;;
23242;SDS011;11790;49.578;11.214;2023-01-19T11:08:40;26.95;;;16.00;;
23242;SDS011;11790;49.578;11.214;2023-01-19T11:13:41;27.90;;;15.43;;
23242;SDS011;11790;49.578;11.214;2023-01-19T11:18:41;32.30;;;19.15;;
23242;SDS011;11790;49.578;11.214;2023-01-19T11:23:46;28.38;;;17.40;;
23242;SDS011;11790;49.578;11.214;2023-01-19T11:28:50;26.50;;;15.20;;
23242;SDS011;11790;49.578;11.214;2023-01-19T11:33:53;28.45;;;15.63;;
23242;SDS011;11790;49.578;11.214;2023-01-19T11:39:20;22.27;;;13.55;;
23242;SDS011;11790;49.578;11.214;2023-01-19T11:44:18;23.10;;;13.20;;
23242;SDS011;11790;49.578;11.214;2023-01-19T11:49:26;24.77;;;13.77;;
23242;SDS011;11790;49.578;11.214;2023-01-19T11:54:30;20.60;;;11.63;;
23242;SDS011;11790;49.578;11.214;2023-01-19T11:59:30;18.33;;;12.43;;
23242;SDS011;11790;49.578;11.214;2023-01-19T12:04:32;29.17;;;12.68;;
23242;SDS011;11790;49.578;11.214;2023-01-19T12:09:34;23.35;;;13.13;;
23242;SDS011;11790;49.578;11.214;2023-01-19T12:14:42;24.95;;;13.50;;
23242;SDS011;11790;49.578;11.214;2023-01-19T12:19:50;20.77;;;11.80;;
23242;SDS011;11790;49.578;11.214;2023-01-19T12:25:01;16.90;;;10.48;;
23242;SDS011;11790;49.578;11.214;2023-01-19T12:30:04;19.70;;;10.35;;
23242;SDS011;11790;49.578;11.214;2023-01-19T12:35:05;15.43;;;9.05;;
23242;SDS011;11790;49.578;11.214;2023-01-19T12:40:19;18.80;;;9.52;;
23242;SDS011;11790;49.578;11.214;2023-01-19T12:45:21;12.73;;;8.15;;
23242;SDS011;11790;49.578;11.214;2023-01-19T12:50:23;12.57;;;8.13;;
23242;SDS011;11790;49.578;11.214;2023-01-19T12:55:34;14.30;;;8.70;;
23242;SDS011;11790;49.578;11.214;2023-01-19T13:00:36;13.63;;;8.70;;
23242;SDS011;11790;49.578;11.214;2023-01-19T13:21:32;17.17;;;9.88;;
23242;SDS011;11790;49.578;11.214;2023-01-19T13:26:33;16.85;;;9.07;;
23242;SDS011;11790;49.578;11.214;2023-01-19T13:31:34;16.27;;;9.60;;
23242;SDS011;11790;49.578;11.214;2023-01-19T13:36:36;20.88;;;9.77;;
23242;SDS011;11790;49.578;11.214;2023-01-19T13:41:38;20.15;;;9.60;;
23242;SDS011;11790;49.578;11.214;2023-01-19T13:46:38;17.58;;;8.77;;
23242;SDS011;11790;49.578;11.214;2023-01-19T13:51:39;19.67;;;9.75;;
23242;SDS011;11790;49.578;11.214;2023-01-19T13:56:39;14.38;;;8.70;;
23242;SDS011;11790;49.578;11.214;2023-01-19T14:01:43;13.50;;;8.25;;
23242;SDS011;11790;49.578;11.214;2023-01-19T14:06:43;13.38;;;8.10;;
23242;SDS011;11790;49.578;11.214;2023-01-19T14:11:46;13.02;;;7.97;;
23242;SDS011;11790;49.578;11.214;2023-01-19T14:16:46;14.38;;;8.35;;
23242;SDS011;11790;49.578;11.214;2023-01-19T14:21:56;17.08;;;9.50;;
23242;SDS011;11790;49.578;11.214;2023-01-19T14:37:18;15.00;;;8.93;;
23242;SDS011;11790;49.578;11.214;2023-01-19T14:42:23;14.90;;;8.63;;
23242;SDS011;11790;49.578;11.214;2023-01-19T14:47:29;17.00;;;8.93;;
23242;SDS011;11790;49.578;11.214;2023-01-19T14:52:31;14.52;;;8.73;;
23242;SDS011;11790;49.578;11.214;2023-01-19T14:57:32;13.50;;;8.82;;
23242;SDS011;11790;49.578;11.214;2023-01-19T15:02:33;14.75;;;9.25;;
23242;SDS011;11790;49.578;11.214;2023-01-19T15:07:33;13.85;;;8.13;;
23242;SDS011;11790;49.578;11.214;2023-01-19T15:12:33;16.00;;;9.13;;
23242;SDS011;11790;49.578;11.214;2023-01-19T15:17:33;17.35;;;9.35;;
23242;SDS011;11790;49.578;11.214;2023-01-19T15:22:34;15.90;;;9.63;;
23242;SDS011;11790;49.578;11.214;2023-01-19T15:27:34;16.85;;;9.52;;
23242;SDS011;11790;49.578;11.214;2023-01-19T15:32:34;19.00;;;10.07;;
23242;SDS011;11790;49.578;11.214;2023-01-19T15:37:34;15.00;;;8.50;;
23242;SDS011;11790;49.578;11.214;2023-01-19T15:42:35;19.67;;;9.95;;
23242;SDS011;11790;49.578;11.214;2023-01-19T15:47:35;15.60;;;9.73;;
23242;SDS011;11790;49.578;11.214;2023-01-19T15:52:35;18.08;;;9.63;;
23242;SDS011;11790;49.578;11.214;2023-01-19T15:57:35;19.17;;;9.88;;
23242;SDS011;11790;49.578;11.214;2023-01-19T16:02:36;16.23;;;9.80;;
23242;SDS011;11790;49.578;11.214;2023-01-19T16:07:36;16.27;;;9.60;;
23242;SDS011;11790;49.578;11.214;2023-01-19T16:12:36;19.15;;;10.50;;
23242;SDS011;11790;49.578;11.214;2023-01-19T16:17:36;19.35;;;11.23;;
23242;SDS011;11790;49.578;11.214;2023-01-19T16:22:37;26.05;;;12.63;;
23242;SDS011;11790;49.578;11.214;2023-01-19T16:27:37;19.23;;;10.50;;
23242;SDS011;11790;49.578;11.214;2023-01-19T16:32:37;21.02;;;11.02;;
23242;SDS011;11790;49.578;11.214;2023-01-19T16:37:37;20.13;;;10.10;;
23242;SDS011;11790;49.578;11.214;2023-01-19T16:42:38;19.40;;;10.95;;
23242;SDS011;11790;49.578;11.214;2023-01-19T16:47:39;22.13;;;11.52;;
23242;SDS011;11790;49.578;11.214;2023-01-19T16:52:40;19.87;;;12.03;;
23242;SDS011;11790;49.578;11.214;2023-01-19T16:57:40;21.30;;;11.82;;
23242;SDS011;11790;49.578;11.214;2023-01-19T17:02:40;20.63;;;10.93;;
23242;SDS011;11790;49.578;11.214;2023-01-19T17:07:41;22.35;;;11.48;;
23242;SDS011;11790;49.578;11.214;2023-01-19T17:12:42;18.35;;;9.90;;
23242;SDS011;11790;49.578;11.214;2023-01-19T17:17:42;21.67;;;11.07;;
23242;SDS011;11790;49.578;11.214;2023-01-19T17:22:42;19.90;;;11.07;;
23242;SDS011;11790;49.578;11.214;2023-01-19T17:27:42;23.58;;;12.38;;
23242;SDS011;11790;49.578;11.214;2023-01-19T17:32:42;27.17;;;13.65;;
23242;SDS011;11790;49.578;11.214;2023-01-19T17:37:58;24.73;;;13.48;;
23242;SDS011;11790;49.578;11.214;2023-01-19T17:42:58;33.95;;;17.27;;
23242;SDS011;11790;49.578;11.214;2023-01-19T17:47:58;53.78;;;23.52;;
23242;SDS011;11790;49.578;11.214;2023-01-19T17:52:58;33.42;;;15.95;;
23242;SDS011;11790;49.578;11.214;2023-01-19T17:57:58;70.25;;;30.77;;
23242;SDS011;11790;49.578;11.214;2023-01-19T18:02:58;40.67;;;20.08;;
23242;SDS011;11790;49.578;11.214;2023-01-19T18:07:59;46.92;;;22.45;;
23242;SDS011;11790;49.578;11.214;2023-01-19T18:12:59;38.85;;;18.52;;
23242;SDS011;11790;49.578;11.214;2023-01-19T18:17:59;22.15;;;12.55;;
23242;SDS011;11790;49.578;11.214;2023-01-19T18:22:59;23.60;;;12.98;;
23242;SDS011;11790;49.578;11.214;2023-01-19T18:28:00;23.45;;;14.32;;
23242;SDS011;11790;49.578;11.214;2023-01-19T18:33:00;17.70;;;10.93;;
23242;SDS011;11790;49.578;11.214;2023-01-19T18:38:00;18.60;;;11.05;;
23242;SDS011;11790;49.578;11.214;2023-01-19T18:43:00;21.23;;;12.05;;
23242;SDS011;11790;49.578;11.214;2023-01-19T18:48:00;24.77;;;12.82;;
23242;SDS011;11790;49.578;11.214;2023-01-19T18:53:00;25.33;;;13.20;;
23242;SDS011;11790;49.578;11.214;2023-01-19T18:58:01;18.52;;;10.88;;
23242;SDS011;11790;49.578;11.214;2023-01-19T19:03:03;21.58;;;11.18;;
23242;SDS011;11790;49.578;11.214;2023-01-19T19:08:06;19.10;;;10.20;;
23242;SDS011;11790;49.578;11.214;2023-01-19T19:13:07;19.05;;;10.90;;
23242;SDS011;11790;49.578;11.214;2023-01-19T19:18:07;16.95;;;10.30;;
23242;SDS011;11790;49.578;11.214;2023-01-19T19:23:08;20.20;;;10.77;;
23242;SDS011;11790;49.578;11.214;2023-01-19T19:28:08;21.52;;;11.65;;
23242;SDS011;11790;49.578;11.214;2023-01-19T19:33:08;21.60;;;11.82;;
23242;SDS011;11790;49.578;11.214;2023-01-19T19:38:09;20.50;;;12.15;;
23242;SDS011;11790;49.578;11.214;2023-01-19T19:43:09;24.02;;;12.23;;
23242;SDS011;11790;49.578;11.214;2023-01-19T19:48:09;21.95;;;12.02;;
23242;SDS011;11790;49.578;11.214;2023-01-19T19:53:09;21.75;;;12.52;;
23242;SDS011;11790;49.578;11.214;2023-01-19T19:58:09;21.55;;;11.82;;
23242;SDS011;11790;49.578;11.214;2023-01-19T20:03:10;22.35;;;12.25;;
23242;SDS011;11790;49.578;11.214;2023-01-19T20:08:12;22.10;;;12.25;;
23242;SDS011;11790;49.578;11.214;2023-01-19T20:13:12;20.08;;;11.35;;
23242;SDS011;11790;49.578;11.214;2023-01-19T20:18:16;23.02;;;12.52;;
23242;SDS011;11790;49.578;11.214;2023-01-19T20:23:17;26.33;;;13.95;;
23242;SDS011;11790;49.578;11.214;2023-01-19T20:28:17;23.60;;;13.18;;
23242;SDS011;11790;49.578;11.214;2023-01-19T20:33:17;26.77;;;13.77;;
23242;SDS011;11790;49.578;11.214;2023-01-19T20:38:18;21.27;;;12.30;;
23242;SDS011;11790;49.578;11.214;2023-01-19T20:43:18;18.92;;;11.38;;
23242;SDS011;11790;49.578;11.214;2023-01-19T20:48:18;23.70;;;12.07;;
23242;SDS011;11790;49.578;11.214;2023-01-19T20:53:18;27.35;;;13.80;;
23242;SDS011;11790;49.578;11.214;2023-01-19T20:58:19;22.95;;;12.48;;
23242;SDS011;11790;49.578;11.214;2023-01-19T21:03:19;25.65;;;14.07;;
23242;SDS011;11790;49.578;11.214;2023-01-19T21:08:19;26.65;;;13.82;;
23242;SDS011;11790;49.578;11.214;2023-01-19T21:13:19;22.67;;;12.43;;
23242;SDS011;11790;49.578;11.214;2023-01-19T21:18:20;27.05;;;12.80;;
23242;SDS011;11790;49.578;11.214;2023-01-19T21:23:20;27.55;;;13.57;;
23242;SDS011;11790;49.578;11.214;2023-01-19T21:28:21;23.83;;;13.63;;
23242;SDS011;11790;49.578;11.214;2023-01-19T21:33:22;22.73;;;13.07;;
23242;SDS011;11790;49.578;11.214;2023-01-19T21:38:23;18.83;;;11.02;;
23242;SDS011;11790;49.578;11.214;2023-01-19T21:43:24;20.77;;;11.73;;
23242;SDS011;11790;49.578;11.214;2023-01-19T21:48:24;17.13;;;10.85;;
23242;SDS011;11790;49.578;11.214;2023-01-19T21:53:24;18.23;;;11.63;;
23242;SDS011;11790;49.578;11.214;2023-01-19T21:58:25;21.58;;;11.70;;
23242;SDS011;11790;49.578;11.214;2023-01-19T22:03:26;22.38;;;11.77;;
23242;SDS011;11790;49.578;11.214;2023-01-19T22:08:26;20.25;;;12.70;;
23242;SDS011;11790;49.578;11.214;2023-01-19T22:13:26;21.57;;;12.50;;
23242;SDS011;11790;49.578;11.214;2023-01-19T22:18:27;24.27;;;14.00;;
23242;SDS011;11790;49.578;11.214;2023-01-19T22:23:27;24.25;;;13.90;;
23242;SDS011;11790;49.578;11.214;2023-01-19T22:28:27;26.17;;;14.38;;
23242;SDS011;11790;49.578;11.214;2023-01-19T22:33:27;20.83;;;13.23;;
23242;SDS011;11790;49.578;11.214;2023-01-19T22:38:28;21.92;;;12.73;;
23242;SDS011;11790;49.578;11.214;2023-01-19T22:43:28;24.92;;;13.48;;
23242;SDS011;11790;49.578;11.214;2023-01-19T22:48:29;23.23;;;13.68;;
23242;SDS011;11790;49.578;11.214;2023-01-19T22:53:30;28.05;;;14.30;;
23242;SDS011;11790;49.578;11.214;2023-01-19T22:58:30;27.60;;;14.10;;
23242;SDS011;11790;49.578;11.214;2023-01-19T23:03:30;22.50;;;13.90;;
23242;SDS011;11790;49.578;11.214;2023-01-19T23:08:31;27.80;;;14.25;;
23242;SDS011;11790;49.578;11.214;2023-01-19T23:13:31;27.58;;;13.98;;
23242;SDS011;11790;49.578;11.214;2023-01-19T23:18:31;21.88;;;12.30;;
23242;SDS011;11790;49.578;11.214;2023-01-19T23:23:32;23.67;;;13.02;;
23242;SDS011;11790;49.578;11.214;2023-01-19T23:28:32;25.20;;;14.05;;
23242;SDS011;11790;49.578;11.214;2023-01-19T23:33:35;26.50;;;14.77;;
23242;SDS011;11790;49.578;11.214;2023-01-19T23:38:36;22.92;;;13.18;;
23242;SDS011;11790;49.578;11.214;2023-01-19T23:43:36;23.48;;;13.43;;
23242;SDS011;11790;49.578;11.214;2023-01-19T23:48:36;19.77;;;12.85;;
23242;SDS011;11790;49.578;11.214;2023-01-19T23:53:37;22.03;;;13.33;;
23242;SDS011;11790;49.578;11.214;2023-01-19T23:58:37;22.00;;;13.43;;
